sensor_id;sensor_type;location;lat;lon;timestamp;P1;durP1;ratioP1;P2;durP2;ratioP2
39522;SDS011;25202;51.216;6.806;2024-03-17T00:02:00;4.38;;;1.90;;
39522;SDS011;25202;51.216;6.806;2024-03-17T00:04:26;3.72;;;2.13;;
39522;SDS011;25202;51.216;6.806;2024-03-17T00:06:52;4.68;;;2.40;;
39522;SDS011;25202;51.216;6.806;2024-03-17T00:09:18;4.03;;;2.17;;
39522;SDS011;25202;51.216;6.806;2024-03-17T00:11:44;3.90;;;2.05;;
39522;SDS011;25202;51.216;6.806;2024-03-17T00:14:10;3.22;;;1.70;;
39522;SDS011;25202;51.216;6.806;2024-03-17T00:16:36;3.60;;;1.85;;
39522;SDS011;25202;51.216;6.806;2024-03-17T00:19:02;3.80;;;2.15;;
39522;SDS011;25202;51.216;6.806;2024-03-17T00:21:28;3.92;;;1.88;;
39522;SDS011;25202;51.216;6.806;2024-03-17T00:23:54;4.20;;;2.08;;
39522;SDS011;25202;51.216;6.806;2024-03-17T00:26:19;3.22;;;1.67;;
39522;SDS011;25202;51.216;6.806;2024-03-17T00:28:46;3.80;;;2.00;;
39522;SDS011;25202;51.216;6.806;2024-03-17T00:31:13;4.93;;;2.28;;
39522;SDS011;25202;51.216;6.806;2024-03-17T00:33:40;3.72;;;1.60;;
39522;SDS011;25202;51.216;6.806;2024-03-17T00:36:06;3.38;;;1.75;;
39522;SDS011;25202;51.216;6.806;2024-03-17T00:38:31;4.15;;;1.98;;
39522;SDS011;25202;51.216;6.806;2024-03-17T00:40:57;3.00;;;1.83;;
39522;SDS011;25202;51.216;6.806;2024-03-17T00:43:22;3.95;;;2.03;;
39522;SDS011;25202;51.216;6.806;2024-03-17T00:45:51;4.15;;;2.20;;
39522;SDS011;25202;51.216;6.806;2024-03-17T00:48:17;3.08;;;1.90;;
39522;SDS011;25202;51.216;6.806;2024-03-17T00:50:43;5.13;;;1.60;;
39522;SDS011;25202;51.216;6.806;2024-03-17T00:53:10;3.88;;;1.95;;
39522;SDS011;25202;51.216;6.806;2024-03-17T00:55:36;3.63;;;1.90;;
39522;SDS011;25202;51.216;6.806;2024-03-17T00:58:02;4.18;;;2.10;;
39522;SDS011;25202;51.216;6.806;2024-03-17T01:00:28;3.47;;;1.75;;
39522;SDS011;25202;51.216;6.806;2024-03-17T01:02:54;4.95;;;2.08;;
39522;SDS011;25202;51.216;6.806;2024-03-17T01:05:19;4.03;;;1.98;;
39522;SDS011;25202;51.216;6.806;2024-03-17T01:07:45;3.22;;;1.77;;
39522;SDS011;25202;51.216;6.806;2024-03-17T01:10:12;3.50;;;1.98;;
39522;SDS011;25202;51.216;6.806;2024-03-17T01:12:38;3.20;;;1.80;;
39522;SDS011;25202;51.216;6.806;2024-03-17T01:15:05;2.63;;;1.60;;
39522;SDS011;25202;51.216;6.806;2024-03-17T01:17:31;3.35;;;2.10;;
39522;SDS011;25202;51.216;6.806;2024-03-17T01:19:57;3.40;;;1.95;;
39522;SDS011;25202;51.216;6.806;2024-03-17T01:22:23;4.40;;;2.15;;
39522;SDS011;25202;51.216;6.806;2024-03-17T01:24:49;3.13;;;1.77;;
39522;SDS011;25202;51.216;6.806;2024-03-17T01:27:14;4.20;;;1.75;;
39522;SDS011;25202;51.216;6.806;2024-03-17T01:29:41;3.40;;;1.73;;
39522;SDS011;25202;51.216;6.806;2024-03-17T01:32:08;3.45;;;1.80;;
39522;SDS011;25202;51.216;6.806;2024-03-17T01:34:34;3.03;;;2.00;;
39522;SDS011;25202;51.216;6.806;2024-03-17T01:37:00;2.88;;;1.60;;
39522;SDS011;25202;51.216;6.806;2024-03-17T01:39:25;2.92;;;1.77;;
39522;SDS011;25202;51.216;6.806;2024-03-17T01:41:51;2.97;;;2.00;;
39522;SDS011;25202;51.216;6.806;2024-03-17T01:44:24;3.72;;;1.85;;
39522;SDS011;25202;51.216;6.806;2024-03-17T01:46:53;3.50;;;2.00;;
39522;SDS011;25202;51.216;6.806;2024-03-17T01:49:20;3.90;;;2.20;;
39522;SDS011;25202;51.216;6.806;2024-03-17T01:51:46;5.65;;;2.17;;
39522;SDS011;25202;51.216;6.806;2024-03-17T01:54:12;4.72;;;1.77;;
39522;SDS011;25202;51.216;6.806;2024-03-17T01:56:38;3.13;;;1.80;;
39522;SDS011;25202;51.216;6.806;2024-03-17T01:59:05;2.85;;;1.70;;
39522;SDS011;25202;51.216;6.806;2024-03-17T02:01:31;3.58;;;1.70;;
39522;SDS011;25202;51.216;6.806;2024-03-17T02:03:57;3.13;;;1.90;;
39522;SDS011;25202;51.216;6.806;2024-03-17T02:06:23;2.63;;;1.58;;
39522;SDS011;25202;51.216;6.806;2024-03-17T02:08:53;3.55;;;2.05;;
39522;SDS011;25202;51.216;6.806;2024-03-17T02:11:26;2.70;;;1.70;;
39522;SDS011;25202;51.216;6.806;2024-03-17T02:13:53;3.25;;;1.83;;
39522;SDS011;25202;51.216;6.806;2024-03-17T02:16:19;2.72;;;1.48;;
39522;SDS011;25202;51.216;6.806;2024-03-17T02:18:45;3.42;;;1.88;;
39522;SDS011;25202;51.216;6.806;2024-03-17T02:21:11;2.90;;;1.70;;
39522;SDS011;25202;51.216;6.806;2024-03-17T02:23:41;3.85;;;1.98;;
39522;SDS011;25202;51.216;6.806;2024-03-17T02:26:07;2.53;;;1.48;;
39522;SDS011;25202;51.216;6.806;2024-03-17T02:28:43;2.88;;;1.65;;
39522;SDS011;25202;51.216;6.806;2024-03-17T02:31:10;2.88;;;1.67;;
39522;SDS011;25202;51.216;6.806;2024-03-17T02:33:36;4.90;;;2.20;;
39522;SDS011;25202;51.216;6.806;2024-03-17T02:36:02;2.72;;;1.67;;
39522;SDS011;25202;51.216;6.806;2024-03-17T02:38:40;3.38;;;1.80;;
39522;SDS011;25202;51.216;6.806;2024-03-17T02:41:25;3.17;;;1.88;;
39522;SDS011;25202;51.216;6.806;2024-03-17T02:43:51;3.20;;;1.73;;
39522;SDS011;25202;51.216;6.806;2024-03-17T02:46:17;4.47;;;1.95;;
39522;SDS011;25202;51.216;6.806;2024-03-17T02:48:44;2.72;;;1.55;;
39522;SDS011;25202;51.216;6.806;2024-03-17T02:51:12;2.47;;;1.40;;
39522;SDS011;25202;51.216;6.806;2024-03-17T02:53:42;2.60;;;1.65;;
39522;SDS011;25202;51.216;6.806;2024-03-17T02:56:10;3.15;;;1.70;;
39522;SDS011;25202;51.216;6.806;2024-03-17T02:58:36;2.42;;;1.48;;
39522;SDS011;25202;51.216;6.806;2024-03-17T03:01:03;2.60;;;1.58;;
39522;SDS011;25202;51.216;6.806;2024-03-17T03:03:30;2.55;;;1.70;;
39522;SDS011;25202;51.216;6.806;2024-03-17T03:05:55;3.38;;;1.73;;
39522;SDS011;25202;51.216;6.806;2024-03-17T03:08:22;2.70;;;1.70;;
39522;SDS011;25202;51.216;6.806;2024-03-17T03:10:48;2.13;;;1.40;;
39522;SDS011;25202;51.216;6.806;2024-03-17T03:13:14;3.47;;;1.40;;
39522;SDS011;25202;51.216;6.806;2024-03-17T03:15:39;3.40;;;1.70;;
39522;SDS011;25202;51.216;6.806;2024-03-17T03:18:05;3.45;;;1.60;;
39522;SDS011;25202;51.216;6.806;2024-03-17T03:20:30;3.05;;;1.70;;
39522;SDS011;25202;51.216;6.806;2024-03-17T03:22:56;3.50;;;2.03;;
39522;SDS011;25202;51.216;6.806;2024-03-17T03:25:21;3.55;;;1.73;;
39522;SDS011;25202;51.216;6.806;2024-03-17T03:27:47;3.47;;;1.58;;
39522;SDS011;25202;51.216;6.806;2024-03-17T03:30:13;2.80;;;1.60;;
39522;SDS011;25202;51.216;6.806;2024-03-17T03:32:40;2.33;;;1.60;;
39522;SDS011;25202;51.216;6.806;2024-03-17T03:35:07;2.80;;;1.58;;
39522;SDS011;25202;51.216;6.806;2024-03-17T03:37:33;2.42;;;1.38;;
39522;SDS011;25202;51.216;6.806;2024-03-17T03:39:59;3.25;;;1.40;;
39522;SDS011;25202;51.216;6.806;2024-03-17T03:42:24;2.70;;;1.40;;
39522;SDS011;25202;51.216;6.806;2024-03-17T03:44:50;3.10;;;1.73;;
39522;SDS011;25202;51.216;6.806;2024-03-17T03:47:15;3.55;;;1.80;;
39522;SDS011;25202;51.216;6.806;2024-03-17T03:49:41;3.22;;;1.85;;
39522;SDS011;25202;51.216;6.806;2024-03-17T03:52:06;2.80;;;1.50;;
39522;SDS011;25202;51.216;6.806;2024-03-17T03:54:33;2.30;;;1.50;;
39522;SDS011;25202;51.216;6.806;2024-03-17T03:56:58;2.35;;;1.48;;
39522;SDS011;25202;51.216;6.806;2024-03-17T03:59:24;2.95;;;1.52;;
39522;SDS011;25202;51.216;6.806;2024-03-17T04:01:50;2.72;;;1.60;;
39522;SDS011;25202;51.216;6.806;2024-03-17T04:04:15;2.67;;;1.60;;
39522;SDS011;25202;51.216;6.806;2024-03-17T04:06:41;2.25;;;1.42;;
39522;SDS011;25202;51.216;6.806;2024-03-17T04:09:07;2.53;;;1.48;;
39522;SDS011;25202;51.216;6.806;2024-03-17T04:11:34;2.50;;;1.27;;
39522;SDS011;25202;51.216;6.806;2024-03-17T04:13:59;1.98;;;1.15;;
39522;SDS011;25202;51.216;6.806;2024-03-17T04:16:26;2.85;;;1.50;;
39522;SDS011;25202;51.216;6.806;2024-03-17T04:18:51;2.00;;;1.20;;
39522;SDS011;25202;51.216;6.806;2024-03-17T04:21:17;2.42;;;1.67;;
39522;SDS011;25202;51.216;6.806;2024-03-17T04:23:43;2.92;;;1.48;;
39522;SDS011;25202;51.216;6.806;2024-03-17T04:26:08;2.67;;;1.55;;
39522;SDS011;25202;51.216;6.806;2024-03-17T04:28:34;2.20;;;1.40;;
39522;SDS011;25202;51.216;6.806;2024-03-17T04:31:07;3.15;;;1.40;;
39522;SDS011;25202;51.216;6.806;2024-03-17T04:33:33;3.25;;;1.40;;
39522;SDS011;25202;51.216;6.806;2024-03-17T04:35:59;1.77;;;1.15;;
39522;SDS011;25202;51.216;6.806;2024-03-17T04:38:25;3.03;;;1.30;;
39522;SDS011;25202;51.216;6.806;2024-03-17T04:40:52;2.25;;;1.13;;
39522;SDS011;25202;51.216;6.806;2024-03-17T04:45:58;3.33;;;1.85;;
39522;SDS011;25202;51.216;6.806;2024-03-17T04:48:29;2.05;;;1.23;;
39522;SDS011;25202;51.216;6.806;2024-03-17T04:50:55;1.80;;;1.20;;
39522;SDS011;25202;51.216;6.806;2024-03-17T04:53:20;2.13;;;1.20;;
39522;SDS011;25202;51.216;6.806;2024-03-17T04:55:46;2.45;;;1.30;;
39522;SDS011;25202;51.216;6.806;2024-03-17T04:58:12;1.88;;;1.20;;
39522;SDS011;25202;51.216;6.806;2024-03-17T05:00:37;2.75;;;1.40;;
39522;SDS011;25202;51.216;6.806;2024-03-17T05:03:03;3.17;;;1.50;;
39522;SDS011;25202;51.216;6.806;2024-03-17T05:05:29;1.70;;;1.10;;
39522;SDS011;25202;51.216;6.806;2024-03-17T05:07:54;2.17;;;1.15;;
39522;SDS011;25202;51.216;6.806;2024-03-17T05:10:20;2.60;;;1.23;;
39522;SDS011;25202;51.216;6.806;2024-03-17T05:12:45;2.78;;;1.60;;
39522;SDS011;25202;51.216;6.806;2024-03-17T05:15:13;2.28;;;1.20;;
39522;SDS011;25202;51.216;6.806;2024-03-17T05:17:38;2.85;;;1.25;;
39522;SDS011;25202;51.216;6.806;2024-03-17T05:20:04;2.63;;;1.27;;
39522;SDS011;25202;51.216;6.806;2024-03-17T05:22:31;2.38;;;1.40;;
39522;SDS011;25202;51.216;6.806;2024-03-17T05:24:56;2.80;;;1.40;;
39522;SDS011;25202;51.216;6.806;2024-03-17T05:27:22;1.85;;;1.05;;
39522;SDS011;25202;51.216;6.806;2024-03-17T05:29:47;2.28;;;1.25;;
39522;SDS011;25202;51.216;6.806;2024-03-17T05:32:13;2.33;;;1.30;;
39522;SDS011;25202;51.216;6.806;2024-03-17T05:34:39;2.50;;;1.40;;
39522;SDS011;25202;51.216;6.806;2024-03-17T05:37:05;1.60;;;1.00;;
39522;SDS011;25202;51.216;6.806;2024-03-17T05:39:30;2.53;;;1.10;;
39522;SDS011;25202;51.216;6.806;2024-03-17T05:41:56;4.10;;;1.67;;
39522;SDS011;25202;51.216;6.806;2024-03-17T05:44:21;2.53;;;1.30;;
39522;SDS011;25202;51.216;6.806;2024-03-17T05:46:47;2.25;;;1.10;;
39522;SDS011;25202;51.216;6.806;2024-03-17T05:49:13;1.83;;;1.10;;
39522;SDS011;25202;51.216;6.806;2024-03-17T05:51:39;2.05;;;1.20;;
39522;SDS011;25202;51.216;6.806;2024-03-17T05:54:05;2.70;;;1.20;;
39522;SDS011;25202;51.216;6.806;2024-03-17T05:56:31;1.95;;;0.98;;
39522;SDS011;25202;51.216;6.806;2024-03-17T05:58:56;2.17;;;1.27;;
39522;SDS011;25202;51.216;6.806;2024-03-17T06:01:22;1.80;;;1.13;;
39522;SDS011;25202;51.216;6.806;2024-03-17T06:03:47;2.25;;;1.08;;
39522;SDS011;25202;51.216;6.806;2024-03-17T06:06:13;2.20;;;1.10;;
39522;SDS011;25202;51.216;6.806;2024-03-17T06:08:38;2.20;;;1.10;;
39522;SDS011;25202;51.216;6.806;2024-03-17T06:11:04;1.42;;;0.98;;
39522;SDS011;25202;51.216;6.806;2024-03-17T06:13:30;1.85;;;1.05;;
39522;SDS011;25202;51.216;6.806;2024-03-17T06:15:56;2.45;;;1.30;;
39522;SDS011;25202;51.216;6.806;2024-03-17T06:18:27;2.13;;;0.93;;
39522;SDS011;25202;51.216;6.806;2024-03-17T06:20:53;1.70;;;1.13;;
39522;SDS011;25202;51.216;6.806;2024-03-17T06:23:18;1.85;;;1.10;;
39522;SDS011;25202;51.216;6.806;2024-03-17T06:25:45;2.70;;;1.13;;
39522;SDS011;25202;51.216;6.806;2024-03-17T06:28:12;1.42;;;0.93;;
39522;SDS011;25202;51.216;6.806;2024-03-17T06:30:44;1.70;;;1.10;;
39522;SDS011;25202;51.216;6.806;2024-03-17T06:33:13;4.38;;;1.42;;
39522;SDS011;25202;51.216;6.806;2024-03-17T06:35:41;2.95;;;1.10;;
39522;SDS011;25202;51.216;6.806;2024-03-17T06:38:06;1.50;;;0.90;;
39522;SDS011;25202;51.216;6.806;2024-03-17T06:40:35;2.63;;;1.10;;
39522;SDS011;25202;51.216;6.806;2024-03-17T06:43:01;3.22;;;1.15;;
39522;SDS011;25202;51.216;6.806;2024-03-17T06:45:26;2.70;;;1.08;;
39522;SDS011;25202;51.216;6.806;2024-03-17T06:47:52;2.40;;;0.90;;
39522;SDS011;25202;51.216;6.806;2024-03-17T06:50:17;2.33;;;1.15;;
39522;SDS011;25202;51.216;6.806;2024-03-17T06:52:43;1.60;;;1.00;;
39522;SDS011;25202;51.216;6.806;2024-03-17T06:55:08;1.60;;;0.90;;
39522;SDS011;25202;51.216;6.806;2024-03-17T06:57:34;1.60;;;1.05;;
39522;SDS011;25202;51.216;6.806;2024-03-17T07:00:00;1.17;;;0.82;;
39522;SDS011;25202;51.216;6.806;2024-03-17T07:02:27;2.22;;;1.20;;
39522;SDS011;25202;51.216;6.806;2024-03-17T07:04:53;1.70;;;1.10;;
39522;SDS011;25202;51.216;6.806;2024-03-17T07:07:18;1.98;;;1.10;;
39522;SDS011;25202;51.216;6.806;2024-03-17T07:09:46;4.03;;;1.20;;
39522;SDS011;25202;51.216;6.806;2024-03-17T07:12:12;1.38;;;0.93;;
39522;SDS011;25202;51.216;6.806;2024-03-17T07:14:37;3.33;;;1.20;;
39522;SDS011;25202;51.216;6.806;2024-03-17T07:17:03;1.35;;;0.98;;
39522;SDS011;25202;51.216;6.806;2024-03-17T07:19:29;1.67;;;1.00;;
39522;SDS011;25202;51.216;6.806;2024-03-17T07:21:56;1.73;;;1.02;;
39522;SDS011;25202;51.216;6.806;2024-03-17T07:24:22;1.88;;;1.05;;
39522;SDS011;25202;51.216;6.806;2024-03-17T07:26:48;2.90;;;1.20;;
39522;SDS011;25202;51.216;6.806;2024-03-17T07:29:14;2.10;;;0.90;;
39522;SDS011;25202;51.216;6.806;2024-03-17T07:31:40;2.00;;;1.05;;
39522;SDS011;25202;51.216;6.806;2024-03-17T07:34:05;2.10;;;1.00;;
39522;SDS011;25202;51.216;6.806;2024-03-17T07:36:31;1.92;;;0.90;;
39522;SDS011;25202;51.216;6.806;2024-03-17T07:38:56;1.48;;;0.90;;
39522;SDS011;25202;51.216;6.806;2024-03-17T07:41:23;1.33;;;0.70;;
39522;SDS011;25202;51.216;6.806;2024-03-17T07:43:49;2.20;;;1.10;;
39522;SDS011;25202;51.216;6.806;2024-03-17T07:46:14;2.92;;;1.00;;
39522;SDS011;25202;51.216;6.806;2024-03-17T07:48:41;2.80;;;1.00;;
39522;SDS011;25202;51.216;6.806;2024-03-17T07:53:37;2.05;;;0.98;;
39522;SDS011;25202;51.216;6.806;2024-03-17T07:56:04;3.20;;;1.10;;
39522;SDS011;25202;51.216;6.806;2024-03-17T07:58:31;1.25;;;0.90;;
39522;SDS011;25202;51.216;6.806;2024-03-17T08:01:02;2.50;;;1.23;;
39522;SDS011;25202;51.216;6.806;2024-03-17T08:03:29;1.63;;;0.95;;
39522;SDS011;25202;51.216;6.806;2024-03-17T08:05:56;1.70;;;1.08;;
39522;SDS011;25202;51.216;6.806;2024-03-17T08:08:22;2.45;;;1.13;;
39522;SDS011;25202;51.216;6.806;2024-03-17T08:10:48;1.95;;;1.10;;
39522;SDS011;25202;51.216;6.806;2024-03-17T08:13:14;1.90;;;0.93;;
39522;SDS011;25202;51.216;6.806;2024-03-17T08:15:43;1.88;;;1.13;;
39522;SDS011;25202;51.216;6.806;2024-03-17T08:18:09;2.80;;;1.10;;
39522;SDS011;25202;51.216;6.806;2024-03-17T08:20:38;1.73;;;0.70;;
39522;SDS011;25202;51.216;6.806;2024-03-17T08:23:04;1.90;;;0.80;;
39522;SDS011;25202;51.216;6.806;2024-03-17T08:25:31;1.50;;;0.80;;
39522;SDS011;25202;51.216;6.806;2024-03-17T08:27:57;1.13;;;0.77;;
39522;SDS011;25202;51.216;6.806;2024-03-17T08:30:22;1.80;;;0.95;;
39522;SDS011;25202;51.216;6.806;2024-03-17T08:32:48;1.40;;;0.90;;
39522;SDS011;25202;51.216;6.806;2024-03-17T08:35:14;1.77;;;0.98;;
39522;SDS011;25202;51.216;6.806;2024-03-17T08:37:40;1.85;;;0.88;;
39522;SDS011;25202;51.216;6.806;2024-03-17T08:40:05;1.65;;;0.90;;
39522;SDS011;25202;51.216;6.806;2024-03-17T08:42:32;2.13;;;1.00;;
39522;SDS011;25202;51.216;6.806;2024-03-17T08:44:57;2.30;;;0.93;;
39522;SDS011;25202;51.216;6.806;2024-03-17T08:47:23;2.95;;;1.10;;
39522;SDS011;25202;51.216;6.806;2024-03-17T08:49:51;2.97;;;1.30;;
39522;SDS011;25202;51.216;6.806;2024-03-17T08:52:17;1.80;;;0.95;;
39522;SDS011;25202;51.216;6.806;2024-03-17T08:54:46;1.17;;;0.90;;
39522;SDS011;25202;51.216;6.806;2024-03-17T08:57:12;1.25;;;0.80;;
39522;SDS011;25202;51.216;6.806;2024-03-17T08:59:38;2.22;;;1.00;;
39522;SDS011;25202;51.216;6.806;2024-03-17T09:02:03;1.83;;;0.77;;
39522;SDS011;25202;51.216;6.806;2024-03-17T09:04:29;2.00;;;0.85;;
39522;SDS011;25202;51.216;6.806;2024-03-17T09:06:54;0.95;;;0.73;;
39522;SDS011;25202;51.216;6.806;2024-03-17T09:09:21;1.40;;;0.90;;
39522;SDS011;25202;51.216;6.806;2024-03-17T09:11:48;1.88;;;0.80;;
39522;SDS011;25202;51.216;6.806;2024-03-17T09:14:13;2.70;;;1.20;;
39522;SDS011;25202;51.216;6.806;2024-03-17T09:16:39;2.03;;;0.95;;
39522;SDS011;25202;51.216;6.806;2024-03-17T09:19:04;2.10;;;0.70;;
39522;SDS011;25202;51.216;6.806;2024-03-17T09:21:30;2.78;;;0.80;;
39522;SDS011;25202;51.216;6.806;2024-03-17T09:23:55;1.88;;;1.17;;
39522;SDS011;25202;51.216;6.806;2024-03-17T09:26:21;3.83;;;0.93;;
39522;SDS011;25202;51.216;6.806;2024-03-17T09:28:47;1.40;;;0.80;;
39522;SDS011;25202;51.216;6.806;2024-03-17T09:31:12;2.03;;;0.90;;
39522;SDS011;25202;51.216;6.806;2024-03-17T09:33:38;1.50;;;0.90;;
39522;SDS011;25202;51.216;6.806;2024-03-17T09:36:08;1.05;;;0.80;;
39522;SDS011;25202;51.216;6.806;2024-03-17T09:38:36;2.45;;;1.15;;
39522;SDS011;25202;51.216;6.806;2024-03-17T09:41:02;1.35;;;0.80;;
39522;SDS011;25202;51.216;6.806;2024-03-17T09:43:28;1.85;;;1.10;;
39522;SDS011;25202;51.216;6.806;2024-03-17T09:45:55;2.72;;;0.82;;
39522;SDS011;25202;51.216;6.806;2024-03-17T09:48:24;1.08;;;0.68;;
39522;SDS011;25202;51.216;6.806;2024-03-17T09:50:51;1.50;;;0.70;;
39522;SDS011;25202;51.216;6.806;2024-03-17T09:53:24;1.40;;;0.75;;
39522;SDS011;25202;51.216;6.806;2024-03-17T09:55:50;0.88;;;0.57;;
39522;SDS011;25202;51.216;6.806;2024-03-17T09:58:18;2.28;;;1.08;;
39522;SDS011;25202;51.216;6.806;2024-03-17T10:00:44;2.15;;;0.98;;
39522;SDS011;25202;51.216;6.806;2024-03-17T10:03:11;1.05;;;0.70;;
39522;SDS011;25202;51.216;6.806;2024-03-17T10:05:38;2.78;;;0.90;;
39522;SDS011;25202;51.216;6.806;2024-03-17T10:08:03;1.50;;;0.98;;
39522;SDS011;25202;51.216;6.806;2024-03-17T10:10:29;1.35;;;0.73;;
39522;SDS011;25202;51.216;6.806;2024-03-17T10:12:54;1.02;;;0.80;;
39522;SDS011;25202;51.216;6.806;2024-03-17T10:15:20;0.80;;;0.60;;
39522;SDS011;25202;51.216;6.806;2024-03-17T10:17:46;1.20;;;0.80;;
39522;SDS011;25202;51.216;6.806;2024-03-17T10:23:02;1.92;;;0.93;;
39522;SDS011;25202;51.216;6.806;2024-03-17T10:25:33;1.80;;;0.90;;
39522;SDS011;25202;51.216;6.806;2024-03-17T10:28:00;2.53;;;1.35;;
39522;SDS011;25202;51.216;6.806;2024-03-17T10:30:26;1.13;;;0.70;;
39522;SDS011;25202;51.216;6.806;2024-03-17T10:32:55;2.50;;;0.80;;
39522;SDS011;25202;51.216;6.806;2024-03-17T10:35:28;1.50;;;0.82;;
39522;SDS011;25202;51.216;6.806;2024-03-17T10:37:54;2.30;;;1.05;;
39522;SDS011;25202;51.216;6.806;2024-03-17T10:40:21;2.55;;;0.77;;
39522;SDS011;25202;51.216;6.806;2024-03-17T10:42:47;1.17;;;0.80;;
39522;SDS011;25202;51.216;6.806;2024-03-17T10:45:14;1.40;;;0.77;;
39522;SDS011;25202;51.216;6.806;2024-03-17T10:47:40;1.23;;;0.90;;
39522;SDS011;25202;51.216;6.806;2024-03-17T10:50:12;2.25;;;0.95;;
39522;SDS011;25202;51.216;6.806;2024-03-17T10:52:43;2.63;;;0.90;;
39522;SDS011;25202;51.216;6.806;2024-03-17T10:55:22;1.58;;;1.00;;
39522;SDS011;25202;51.216;6.806;2024-03-17T10:57:50;1.98;;;0.82;;
39522;SDS011;25202;51.216;6.806;2024-03-17T11:00:20;1.50;;;0.80;;
39522;SDS011;25202;51.216;6.806;2024-03-17T11:02:50;1.50;;;0.80;;
39522;SDS011;25202;51.216;6.806;2024-03-17T11:05:17;2.50;;;1.20;;
39522;SDS011;25202;51.216;6.806;2024-03-17T11:07:45;3.92;;;1.40;;
39522;SDS011;25202;51.216;6.806;2024-03-17T11:10:16;3.22;;;1.77;;
39522;SDS011;25202;51.216;6.806;2024-03-17T11:12:48;5.82;;;2.17;;
39522;SDS011;25202;51.216;6.806;2024-03-17T11:17:52;4.10;;;2.15;;
39522;SDS011;25202;51.216;6.806;2024-03-17T11:20:25;4.65;;;2.20;;
39522;SDS011;25202;51.216;6.806;2024-03-17T11:22:59;6.05;;;2.08;;
39522;SDS011;25202;51.216;6.806;2024-03-17T11:27:51;5.93;;;2.00;;
39522;SDS011;25202;51.216;6.806;2024-03-17T11:41:37;2.55;;;1.80;;
39522;SDS011;25202;51.216;6.806;2024-03-17T11:46:52;4.80;;;1.75;;
39522;SDS011;25202;51.216;6.806;2024-03-17T11:49:24;3.60;;;1.80;;
39522;SDS011;25202;51.216;6.806;2024-03-17T11:51:53;2.22;;;1.48;;
39522;SDS011;25202;51.216;6.806;2024-03-17T11:54:26;2.80;;;1.60;;
39522;SDS011;25202;51.216;6.806;2024-03-17T11:56:53;4.60;;;1.60;;
39522;SDS011;25202;51.216;6.806;2024-03-17T11:59:20;3.10;;;1.48;;
39522;SDS011;25202;51.216;6.806;2024-03-17T12:01:47;2.75;;;1.48;;
39522;SDS011;25202;51.216;6.806;2024-03-17T12:04:17;4.15;;;1.50;;
39522;SDS011;25202;51.216;6.806;2024-03-17T12:11:43;2.15;;;1.30;;
39522;SDS011;25202;51.216;6.806;2024-03-17T12:14:13;3.58;;;1.50;;
39522;SDS011;25202;51.216;6.806;2024-03-17T12:16:48;2.25;;;1.30;;
39522;SDS011;25202;51.216;6.806;2024-03-17T12:19:17;2.45;;;1.20;;
39522;SDS011;25202;51.216;6.806;2024-03-17T12:21:44;3.42;;;1.15;;
39522;SDS011;25202;51.216;6.806;2024-03-17T12:24:15;3.60;;;1.27;;
39522;SDS011;25202;51.216;6.806;2024-03-17T12:26:44;3.38;;;1.10;;
39522;SDS011;25202;51.216;6.806;2024-03-17T12:29:45;1.50;;;1.10;;
39522;SDS011;25202;51.216;6.806;2024-03-17T12:34:36;1.98;;;1.30;;
39522;SDS011;25202;51.216;6.806;2024-03-17T12:37:02;3.45;;;1.20;;
39522;SDS011;25202;51.216;6.806;2024-03-17T12:39:30;2.30;;;1.40;;
39522;SDS011;25202;51.216;6.806;2024-03-17T12:44:29;2.73;;;1.23;;
39522;SDS011;25202;51.216;6.806;2024-03-17T12:46:58;2.08;;;1.05;;
39522;SDS011;25202;51.216;6.806;2024-03-17T12:49:28;1.50;;;0.95;;
39522;SDS011;25202;51.216;6.806;2024-03-17T12:51:54;3.63;;;1.45;;
39522;SDS011;25202;51.216;6.806;2024-03-17T12:54:21;4.32;;;1.00;;
39522;SDS011;25202;51.216;6.806;2024-03-17T12:56:48;2.65;;;1.10;;
39522;SDS011;25202;51.216;6.806;2024-03-17T12:59:42;1.15;;;0.93;;
39522;SDS011;25202;51.216;6.806;2024-03-17T13:02:26;2.70;;;1.23;;
39522;SDS011;25202;51.216;6.806;2024-03-17T13:07:51;1.63;;;1.20;;
39522;SDS011;25202;51.216;6.806;2024-03-17T13:10:19;2.25;;;1.33;;
39522;SDS011;25202;51.216;6.806;2024-03-17T13:12:45;3.08;;;1.27;;
39522;SDS011;25202;51.216;6.806;2024-03-17T13:15:16;3.72;;;1.25;;
39522;SDS011;25202;51.216;6.806;2024-03-17T13:17:42;4.97;;;1.33;;
39522;SDS011;25202;51.216;6.806;2024-03-17T13:20:12;2.45;;;1.25;;
39522;SDS011;25202;51.216;6.806;2024-03-17T13:22:40;9.43;;;1.73;;
39522;SDS011;25202;51.216;6.806;2024-03-17T13:25:16;6.15;;;1.50;;
39522;SDS011;25202;51.216;6.806;2024-03-17T13:27:45;11.63;;;1.75;;
39522;SDS011;25202;51.216;6.806;2024-03-17T13:30:12;8.52;;;1.90;;
39522;SDS011;25202;51.216;6.806;2024-03-17T13:32:38;6.28;;;1.88;;
39522;SDS011;25202;51.216;6.806;2024-03-17T13:35:05;7.82;;;1.58;;
39522;SDS011;25202;51.216;6.806;2024-03-17T13:37:30;5.70;;;1.55;;
39522;SDS011;25202;51.216;6.806;2024-03-17T13:39:56;6.15;;;1.52;;
39522;SDS011;25202;51.216;6.806;2024-03-17T13:42:21;3.70;;;1.40;;
39522;SDS011;25202;51.216;6.806;2024-03-17T13:44:47;5.07;;;1.40;;
39522;SDS011;25202;51.216;6.806;2024-03-17T13:47:14;2.45;;;1.13;;
39522;SDS011;25202;51.216;6.806;2024-03-17T13:49:40;5.05;;;1.27;;
39522;SDS011;25202;51.216;6.806;2024-03-17T13:52:05;5.30;;;1.70;;
39522;SDS011;25202;51.216;6.806;2024-03-17T13:54:31;3.05;;;1.20;;
39522;SDS011;25202;51.216;6.806;2024-03-17T13:56:57;5.47;;;1.38;;
39522;SDS011;25202;51.216;6.806;2024-03-17T13:59:23;3.53;;;1.20;;
39522;SDS011;25202;51.216;6.806;2024-03-17T14:01:50;3.08;;;1.05;;
39522;SDS011;25202;51.216;6.806;2024-03-17T14:04:18;3.80;;;1.20;;
39522;SDS011;25202;51.216;6.806;2024-03-17T14:06:44;4.15;;;1.40;;
39522;SDS011;25202;51.216;6.806;2024-03-17T14:09:12;3.97;;;1.35;;
39522;SDS011;25202;51.216;6.806;2024-03-17T14:11:37;4.30;;;1.33;;
39522;SDS011;25202;51.216;6.806;2024-03-17T14:14:04;6.90;;;1.38;;
39522;SDS011;25202;51.216;6.806;2024-03-17T14:16:30;2.33;;;1.13;;
39522;SDS011;25202;51.216;6.806;2024-03-17T14:18:59;2.35;;;1.08;;
39522;SDS011;25202;51.216;6.806;2024-03-17T14:21:26;3.70;;;1.08;;
39522;SDS011;25202;51.216;6.806;2024-03-17T14:23:52;3.40;;;1.35;;
39522;SDS011;25202;51.216;6.806;2024-03-17T14:26:18;3.90;;;1.27;;
39522;SDS011;25202;51.216;6.806;2024-03-17T14:28:43;3.28;;;1.13;;
39522;SDS011;25202;51.216;6.806;2024-03-17T14:31:09;2.58;;;1.40;;
39522;SDS011;25202;51.216;6.806;2024-03-17T14:33:35;2.25;;;1.10;;
39522;SDS011;25202;51.216;6.806;2024-03-17T14:36:01;2.10;;;0.90;;
39522;SDS011;25202;51.216;6.806;2024-03-17T14:38:26;3.95;;;1.10;;
39522;SDS011;25202;51.216;6.806;2024-03-17T14:40:52;2.20;;;1.05;;
39522;SDS011;25202;51.216;6.806;2024-03-17T14:43:18;2.95;;;1.08;;
39522;SDS011;25202;51.216;6.806;2024-03-17T14:45:44;3.22;;;1.08;;
39522;SDS011;25202;51.216;6.806;2024-03-17T14:48:10;1.63;;;1.15;;
39522;SDS011;25202;51.216;6.806;2024-03-17T14:50:36;1.73;;;1.00;;
39522;SDS011;25202;51.216;6.806;2024-03-17T14:53:02;4.13;;;0.82;;
39522;SDS011;25202;51.216;6.806;2024-03-17T14:55:28;2.58;;;1.15;;
39522;SDS011;25202;51.216;6.806;2024-03-17T14:57:53;3.30;;;1.08;;
39522;SDS011;25202;51.216;6.806;2024-03-17T15:00:19;3.15;;;1.10;;
39522;SDS011;25202;51.216;6.806;2024-03-17T15:02:45;2.45;;;1.08;;
39522;SDS011;25202;51.216;6.806;2024-03-17T15:05:15;2.95;;;1.10;;
39522;SDS011;25202;51.216;6.806;2024-03-17T15:07:41;2.67;;;1.20;;
39522;SDS011;25202;51.216;6.806;2024-03-17T15:10:07;2.08;;;1.05;;
39522;SDS011;25202;51.216;6.806;2024-03-17T15:12:33;2.33;;;1.38;;
39522;SDS011;25202;51.216;6.806;2024-03-17T15:14:59;2.08;;;1.20;;
39522;SDS011;25202;51.216;6.806;2024-03-17T15:17:24;2.20;;;1.05;;
39522;SDS011;25202;51.216;6.806;2024-03-17T15:19:50;3.25;;;1.23;;
39522;SDS011;25202;51.216;6.806;2024-03-17T15:22:15;2.88;;;1.38;;
39522;SDS011;25202;51.216;6.806;2024-03-17T15:24:41;3.70;;;1.35;;
39522;SDS011;25202;51.216;6.806;2024-03-17T15:27:07;2.67;;;1.02;;